sensor_id;sensor_type;location;lat;lon;timestamp;pressure;altitude;pressure_sealevel;temperature;humidity
1207;BME280;593;53.184;8.216;2022-08-23T00:01:44;101149.59;;;22.63;80.52
1207;BME280;593;53.184;8.216;2022-08-23T00:04:26;101153.50;;;22.62;79.85
1207;BME280;593;53.184;8.216;2022-08-23T00:06:53;101157.44;;;22.61;79.29
1207;BME280;593;53.184;8.216;2022-08-23T00:09:20;101149.13;;;22.61;79.30
1207;BME280;593;53.184;8.216;2022-08-23T00:11:52;101145.06;;;22.59;79.12
1207;BME280;593;53.184;8.216;2022-08-23T00:14:29;101130.19;;;22.51;78.00
1207;BME280;593;53.184;8.216;2022-08-23T00:16:55;101144.72;;;22.60;77.33
1207;BME280;593;53.184;8.216;2022-08-23T00:19:24;101141.13;;;22.60;76.67
1207;BME280;593;53.184;8.216;2022-08-23T00:22:00;101142.63;;;22.57;76.37
1207;BME280;593;53.184;8.216;2022-08-23T00:24:29;101149.81;;;22.58;76.63
1207;BME280;593;53.184;8.216;2022-08-23T00:27:16;101148.66;;;22.59;76.78
1207;BME280;593;53.184;8.216;2022-08-23T00:29:43;101142.63;;;22.57;76.51
1207;BME280;593;53.184;8.216;2022-08-23T00:32:14;101146.22;;;22.58;76.75
1207;BME280;593;53.184;8.216;2022-08-23T00:34:44;101144.63;;;22.57;76.19
1207;BME280;593;53.184;8.216;2022-08-23T00:37:30;101149.34;;;22.56;74.78
1207;BME280;593;53.184;8.216;2022-08-23T00:39:59;101141.84;;;22.57;74.62
1207;BME280;593;53.184;8.216;2022-08-23T00:45:37;101143.38;;;22.54;74.70
1207;BME280;593;53.184;8.216;2022-08-23T00:48:40;101143.81;;;22.56;74.02
1207;BME280;593;53.184;8.216;2022-08-23T00:51:18;101148.91;;;22.54;73.76
1207;BME280;593;53.184;8.216;2022-08-23T00:53:49;101146.91;;;22.55;73.38
1207;BME280;593;53.184;8.216;2022-08-23T00:56:19;101148.91;;;22.54;72.92
1207;BME280;593;53.184;8.216;2022-08-23T00:59:26;101148.09;;;22.54;73.57
1207;BME280;593;53.184;8.216;2022-08-23T01:01:52;101157.22;;;22.54;73.63
1207;BME280;593;53.184;8.216;2022-08-23T01:04:17;101135.53;;;22.44;73.45
1207;BME280;593;53.184;8.216;2022-08-23T01:06:48;101109.69;;;22.28;72.58
1207;BME280;593;53.184;8.216;2022-08-23T01:09:36;101143.59;;;22.49;72.40
1207;BME280;593;53.184;8.216;2022-08-23T01:12:13;101156.28;;;22.50;72.19
1207;BME280;593;53.184;8.216;2022-08-23T01:15:00;101154.34;;;22.51;71.61
1207;BME280;593;53.184;8.216;2022-08-23T01:17:40;101146.00;;;22.51;72.18
1207;BME280;593;53.184;8.216;2022-08-23T01:20:14;101147.97;;;22.50;71.69
1207;BME280;593;53.184;8.216;2022-08-23T01:22:48;101155.97;;;22.52;71.98
1207;BME280;593;53.184;8.216;2022-08-23T01:25:18;101147.16;;;22.50;71.87
1207;BME280;593;53.184;8.216;2022-08-23T01:27:46;101154.34;;;22.51;71.81
1207;BME280;593;53.184;8.216;2022-08-23T01:30:15;101148.78;;;22.51;70.69
1207;BME280;593;53.184;8.216;2022-08-23T01:32:49;101139.91;;;22.45;70.89
1207;BME280;593;53.184;8.216;2022-08-23T01:35:16;101150.75;;;22.50;70.91
1207;BME280;593;53.184;8.216;2022-08-23T01:37:42;101143.84;;;22.44;70.51
1207;BME280;593;53.184;8.216;2022-08-23T01:40:08;101159.06;;;22.50;70.39
1207;BME280;593;53.184;8.216;2022-08-23T01:42:33;101149.16;;;22.49;70.43
1207;BME280;593;53.184;8.216;2022-08-23T01:44:59;101141.53;;;22.46;70.88
1207;BME280;593;53.184;8.216;2022-08-23T01:47:25;101147.06;;;22.46;70.89
1207;BME280;593;53.184;8.216;2022-08-23T01:49:50;101158.25;;;22.50;71.09
1207;BME280;593;53.184;8.216;2022-08-23T01:52:15;101148.34;;;22.49;70.80
1207;BME280;593;53.184;8.216;2022-08-23T01:54:41;101147.97;;;22.50;70.20
1207;BME280;593;53.184;8.216;2022-08-23T01:57:07;101143.38;;;22.42;70.44
1207;BME280;593;53.184;8.216;2022-08-23T01:59:32;101131.72;;;22.37;70.15
1207;BME280;593;53.184;8.216;2022-08-23T02:01:58;101149.16;;;22.49;69.62
1207;BME280;593;53.184;8.216;2022-08-23T02:04:24;101144.31;;;22.46;70.15
1207;BME280;593;53.184;8.216;2022-08-23T02:06:50;101151.44;;;22.47;70.22
1207;BME280;593;53.184;8.216;2022-08-23T02:09:15;101153.44;;;22.47;69.99
1207;BME280;593;53.184;8.216;2022-08-23T02:11:41;101150.66;;;22.47;69.97
1207;BME280;593;53.184;8.216;2022-08-23T02:14:13;101149.03;;;22.46;70.17
1207;BME280;593;53.184;8.216;2022-08-23T02:16:50;101150.53;;;22.43;70.52
1207;BME280;593;53.184;8.216;2022-08-23T02:19:18;101143.84;;;22.44;70.53
1207;BME280;593;53.184;8.216;2022-08-23T02:21:44;101152.16;;;22.44;70.27
1207;BME280;593;53.184;8.216;2022-08-23T02:24:17;101147.75;;;22.43;69.76
1207;BME280;593;53.184;8.216;2022-08-23T02:26:46;101132.78;;;22.32;69.10
1207;BME280;593;53.184;8.216;2022-08-23T02:29:13;101136.72;;;22.31;69.00
1207;BME280;593;53.184;8.216;2022-08-23T02:31:39;101153.56;;;22.38;69.15
1207;BME280;593;53.184;8.216;2022-08-23T02:34:05;101157.47;;;22.37;68.89
1207;BME280;593;53.184;8.216;2022-08-23T02:36:31;101151.16;;;22.37;69.79
1207;BME280;593;53.184;8.216;2022-08-23T02:38:56;101155.88;;;22.36;70.17
1207;BME280;593;53.184;8.216;2022-08-23T02:41:22;101163.75;;;22.34;70.05
1207;BME280;593;53.184;8.216;2022-08-23T02:43:51;101147.34;;;22.29;70.34
1207;BME280;593;53.184;8.216;2022-08-23T02:46:17;101132.34;;;22.18;70.22
1207;BME280;593;53.184;8.216;2022-08-23T02:48:42;101151.25;;;22.28;69.96
1207;BME280;593;53.184;8.216;2022-08-23T02:51:08;101139.28;;;22.24;70.16
1207;BME280;593;53.184;8.216;2022-08-23T02:53:34;101146.91;;;22.27;70.31
1207;BME280;593;53.184;8.216;2022-08-23T02:56:00;101158.44;;;22.29;70.18
1207;BME280;593;53.184;8.216;2022-08-23T02:58:25;101155.66;;;22.29;70.07
1207;BME280;593;53.184;8.216;2022-08-23T03:00:52;101148.63;;;22.19;70.18
1207;BME280;593;53.184;8.216;2022-08-23T03:03:18;101159.47;;;22.24;70.15
1207;BME280;593;53.184;8.216;2022-08-23T03:05:44;101156.59;;;22.21;70.40
1207;BME280;593;53.184;8.216;2022-08-23T03:08:10;101148.16;;;22.17;70.46
1207;BME280;593;53.184;8.216;2022-08-23T03:10:36;101161.78;;;22.22;70.62
1207;BME280;593;53.184;8.216;2022-08-23T03:13:06;101158.91;;;22.19;70.25
1207;BME280;593;53.184;8.216;2022-08-23T03:15:31;101163.28;;;22.20;70.36
1207;BME280;593;53.184;8.216;2022-08-23T03:17:57;101156.47;;;22.17;70.36
1207;BME280;593;53.184;8.216;2022-08-23T03:20:22;101158.34;;;22.13;70.99
1207;BME280;593;53.184;8.216;2022-08-23T03:22:48;101160.75;;;22.15;71.39
1207;BME280;593;53.184;8.216;2022-08-23T03:25:13;101161.09;;;22.13;71.23
1207;BME280;593;53.184;8.216;2022-08-23T03:27:38;101145.75;;;22.04;71.50
1207;BME280;593;53.184;8.216;2022-08-23T03:30:05;101158.69;;;22.12;71.68
1207;BME280;593;53.184;8.216;2022-08-23T03:32:30;101150.63;;;22.07;71.52
1207;BME280;593;53.184;8.216;2022-08-23T03:34:56;101149.22;;;22.01;71.61
1207;BME280;593;53.184;8.216;2022-08-23T03:37:21;101139.41;;;21.91;71.72
1207;BME280;593;53.184;8.216;2022-08-23T03:39:46;101153.84;;;21.97;72.11
1207;BME280;593;53.184;8.216;2022-08-23T03:42:12;101153.72;;;21.93;72.29
1207;BME280;593;53.184;8.216;2022-08-23T03:44:37;101154.53;;;21.94;72.24
1207;BME280;593;53.184;8.216;2022-08-23T03:47:03;101147.47;;;21.84;72.57
1207;BME280;593;53.184;8.216;2022-08-23T03:49:30;101168.63;;;21.89;73.18
1207;BME280;593;53.184;8.216;2022-08-23T03:51:55;101175.66;;;21.86;73.20
1207;BME280;593;53.184;8.216;2022-08-23T03:54:21;101168.81;;;21.84;73.39
1207;BME280;593;53.184;8.216;2022-08-23T03:56:56;101136.94;;;21.65;73.60
1207;BME280;593;53.184;8.216;2022-08-23T03:59:25;101159.91;;;21.78;73.72
1207;BME280;593;53.184;8.216;2022-08-23T04:01:50;101149.97;;;21.65;74.04
1207;BME280;593;53.184;8.216;2022-08-23T04:04:16;101159.69;;;21.71;73.94
1207;BME280;593;53.184;8.216;2022-08-23T04:06:41;101152.66;;;21.61;73.87
1207;BME280;593;53.184;8.216;2022-08-23T04:09:09;101174.22;;;21.68;73.98
1207;BME280;593;53.184;8.216;2022-08-23T04:11:35;101160.13;;;21.61;74.64
1207;BME280;593;53.184;8.216;2022-08-23T04:14:00;101175.59;;;21.62;74.75
1207;BME280;593;53.184;8.216;2022-08-23T04:16:26;101174.31;;;21.59;74.86
1207;BME280;593;53.184;8.216;2022-08-23T04:18:52;101173.84;;;21.57;74.99
1207;BME280;593;53.184;8.216;2022-08-23T04:21:19;101163.94;;;21.44;74.99
1207;BME280;593;53.184;8.216;2022-08-23T04:23:46;101165.66;;;21.49;75.05
1207;BME280;593;53.184;8.216;2022-08-23T04:26:11;101183.75;;;21.46;75.20
1207;BME280;593;53.184;8.216;2022-08-23T04:28:37;101180.88;;;21.43;75.39
1207;BME280;593;53.184;8.216;2022-08-23T04:31:03;101190.78;;;21.44;75.69
1207;BME280;593;53.184;8.216;2022-08-23T04:33:30;101202.69;;;21.44;76.05
1207;BME280;593;53.184;8.216;2022-08-23T04:35:58;101189.75;;;21.36;76.65
1207;BME280;593;53.184;8.216;2022-08-23T04:38:23;101191.69;;;21.36;76.47
1207;BME280;593;53.184;8.216;2022-08-23T04:40:48;101197.59;;;21.34;76.79
1207;BME280;593;53.184;8.216;2022-08-23T04:43:32;101195.50;;;21.31;76.87
1207;BME280;593;53.184;8.216;2022-08-23T04:45:58;101202.97;;;21.31;77.32
1207;BME280;593;53.184;8.216;2022-08-23T04:48:23;101196.84;;;21.25;77.13
1207;BME280;593;53.184;8.216;2022-08-23T04:50:49;101197.31;;;21.27;77.45
1207;BME280;593;53.184;8.216;2022-08-23T04:53:14;101208.72;;;21.26;77.74
1207;BME280;593;53.184;8.216;2022-08-23T04:55:40;101206.16;;;21.21;77.99
1207;BME280;593;53.184;8.216;2022-08-23T04:58:06;101206.53;;;21.19;78.42
1207;BME280;593;53.184;8.216;2022-08-23T05:00:31;101202.47;;;21.17;78.42
1207;BME280;593;53.184;8.216;2022-08-23T05:02:57;101200.38;;;21.14;79.13
1207;BME280;593;53.184;8.216;2022-08-23T05:05:22;101207.88;;;21.13;79.08
1207;BME280;593;53.184;8.216;2022-08-23T05:07:48;101204.19;;;21.09;79.31
1207;BME280;593;53.184;8.216;2022-08-23T05:10:15;101217.31;;;21.12;79.58
1207;BME280;593;53.184;8.216;2022-08-23T05:12:41;101211.66;;;21.08;79.60
1207;BME280;593;53.184;8.216;2022-08-23T05:15:09;101212.78;;;21.07;79.88
1207;BME280;593;53.184;8.216;2022-08-23T05:17:35;101216.19;;;21.04;80.10
1207;BME280;593;53.184;8.216;2022-08-23T05:20:01;101215.56;;;21.07;80.15
1207;BME280;593;53.184;8.216;2022-08-23T05:22:27;101217.53;;;21.07;79.96
1207;BME280;593;53.184;8.216;2022-08-23T05:24:52;101215.75;;;21.02;80.86
1207;BME280;593;53.184;8.216;2022-08-23T05:27:18;101214.13;;;21.01;80.45
1207;BME280;593;53.184;8.216;2022-08-23T05:29:43;101217.03;;;21.05;80.15
1207;BME280;593;53.184;8.216;2022-08-23T05:32:09;101218.03;;;21.00;80.02
1207;BME280;593;53.184;8.216;2022-08-23T05:34:34;101222.91;;;21.03;79.84
1207;BME280;593;53.184;8.216;2022-08-23T05:37:01;101224.84;;;21.03;80.23
1207;BME280;593;53.184;8.216;2022-08-23T05:39:26;101222.09;;;21.03;80.51
1207;BME280;593;53.184;8.216;2022-08-23T05:41:52;101226.63;;;21.07;80.23
1207;BME280;593;53.184;8.216;2022-08-23T05:44:17;101216.09;;;21.01;80.57
1207;BME280;593;53.184;8.216;2022-08-23T05:46:42;101220.63;;;21.05;80.49
1207;BME280;593;53.184;8.216;2022-08-23T05:49:09;101228.94;;;21.05;80.69
1207;BME280;593;53.184;8.216;2022-08-23T05:51:34;101219.78;;;21.05;80.42
1207;BME280;593;53.184;8.216;2022-08-23T05:54:04;101226.63;;;21.07;80.63
1207;BME280;593;53.184;8.216;2022-08-23T05:56:33;101223.41;;;21.05;80.54
1207;BME280;593;53.184;8.216;2022-08-23T06:01:27;101237.50;;;21.13;80.70
1207;BME280;593;53.184;8.216;2022-08-23T06:03:52;101235.06;;;21.11;80.84
1207;BME280;593;53.184;8.216;2022-08-23T06:06:18;101239.44;;;21.12;80.74
1207;BME280;593;53.184;8.216;2022-08-23T06:08:45;101240.41;;;21.16;80.58
1207;BME280;593;53.184;8.216;2022-08-23T06:11:19;101236.00;;;21.15;80.73
1207;BME280;593;53.184;8.216;2022-08-23T06:13:47;101241.69;;;21.19;80.32
1207;BME280;593;53.184;8.216;2022-08-23T06:16:16;101247.22;;;21.19;80.38
1207;BME280;593;53.184;8.216;2022-08-23T06:18:43;101251.59;;;21.20;80.52
1207;BME280;593;53.184;8.216;2022-08-23T06:21:10;101256.59;;;21.26;80.81
1207;BME280;593;53.184;8.216;2022-08-23T06:23:36;101244.72;;;21.26;80.59
1207;BME280;593;53.184;8.216;2022-08-23T06:26:29;101253.94;;;21.30;80.32
1207;BME280;593;53.184;8.216;2022-08-23T06:29:00;101246.44;;;21.30;80.45
1207;BME280;593;53.184;8.216;2022-08-23T06:31:27;101265.75;;;21.39;80.50
1207;BME280;593;53.184;8.216;2022-08-23T06:36:49;101262.22;;;21.50;80.81
1207;BME280;593;53.184;8.216;2022-08-23T06:39:17;101257.50;;;21.51;80.72
1207;BME280;593;53.184;8.216;2022-08-23T06:41:43;101267.91;;;21.66;80.33
1207;BME280;593;53.184;8.216;2022-08-23T06:44:09;101279.91;;;21.70;80.40
1207;BME280;593;53.184;8.216;2022-08-23T06:46:35;101277.53;;;21.81;79.91
1207;BME280;593;53.184;8.216;2022-08-23T06:49:04;101279.28;;;21.85;79.21
1207;BME280;593;53.184;8.216;2022-08-23T06:51:41;101273.06;;;21.88;79.37
1207;BME280;593;53.184;8.216;2022-08-23T06:54:11;101271.34;;;21.96;79.41
1207;BME280;593;53.184;8.216;2022-08-23T06:56:39;101268.72;;;21.99;79.19
1207;BME280;593;53.184;8.216;2022-08-23T06:59:06;101273.47;;;22.11;79.29
1207;BME280;593;53.184;8.216;2022-08-23T07:01:54;101270.09;;;22.17;79.11
1207;BME280;593;53.184;8.216;2022-08-23T07:04:32;101262.72;;;22.21;79.09
1207;BME280;593;53.184;8.216;2022-08-23T07:06:58;101272.91;;;22.29;78.83
1207;BME280;593;53.184;8.216;2022-08-23T07:09:25;101259.81;;;22.30;78.98
1207;BME280;593;53.184;8.216;2022-08-23T07:11:51;101260.63;;;22.43;78.90
1207;BME280;593;53.184;8.216;2022-08-23T07:14:19;101258.91;;;22.50;78.95
1207;BME280;593;53.184;8.216;2022-08-23T07:16:50;101268.38;;;22.61;78.21
1207;BME280;593;53.184;8.216;2022-08-23T07:19:18;101253.56;;;22.57;77.45
1207;BME280;593;53.184;8.216;2022-08-23T07:21:44;101259.59;;;22.71;77.22
1207;BME280;593;53.184;8.216;2022-08-23T07:24:09;101265.81;;;22.80;76.33
1207;BME280;593;53.184;8.216;2022-08-23T07:26:36;101275.53;;;22.86;75.75
1207;BME280;593;53.184;8.216;2022-08-23T07:29:05;101277.63;;;22.89;75.29
1207;BME280;593;53.184;8.216;2022-08-23T07:31:33;101282.56;;;22.96;75.07
1207;BME280;593;53.184;8.216;2022-08-23T07:34:02;101286.25;;;23.00;74.81
1207;BME280;593;53.184;8.216;2022-08-23T07:36:29;101282.44;;;23.05;74.52
1207;BME280;593;53.184;8.216;2022-08-23T07:38:55;101281.63;;;23.04;74.71
1207;BME280;593;53.184;8.216;2022-08-23T07:41:23;101285.75;;;23.10;74.48
1207;BME280;593;53.184;8.216;2022-08-23T07:43:49;101279.28;;;23.06;74.11
1207;BME280;593;53.184;8.216;2022-08-23T07:46:14;101285.97;;;23.17;74.03
1207;BME280;593;53.184;8.216;2022-08-23T07:48:40;101280.88;;;23.19;74.30
1207;BME280;593;53.184;8.216;2022-08-23T07:51:07;101284.19;;;23.25;73.25
1207;BME280;593;53.184;8.216;2022-08-23T07:53:34;101282.59;;;23.24;73.24
1207;BME280;593;53.184;8.216;2022-08-23T07:56:04;101295.31;;;23.37;73.56
1207;BME280;593;53.184;8.216;2022-08-23T07:58:29;101290.91;;;23.36;72.41
1207;BME280;593;53.184;8.216;2022-08-23T08:00:54;101299.69;;;23.38;72.29
1207;BME280;593;53.184;8.216;2022-08-23T08:03:20;101296.22;;;23.41;72.95
1207;BME280;593;53.184;8.216;2022-08-23T08:05:45;101294.81;;;23.47;73.37
1207;BME280;593;53.184;8.216;2022-08-23T08:08:11;101299.63;;;23.50;73.98
1207;BME280;593;53.184;8.216;2022-08-23T08:10:38;101300.31;;;23.59;74.53
1207;BME280;593;53.184;8.216;2022-08-23T08:13:06;101296.00;;;23.62;74.33
1207;BME280;593;53.184;8.216;2022-08-23T08:15:32;101294.69;;;23.71;73.27
1207;BME280;593;53.184;8.216;2022-08-23T08:17:58;101311.53;;;23.78;73.16
1207;BME280;593;53.184;8.216;2022-08-23T08:20:23;101303.31;;;23.82;73.08
1207;BME280;593;53.184;8.216;2022-08-23T08:22:52;101310.13;;;23.84;72.57
1207;BME280;593;53.184;8.216;2022-08-23T08:25:18;101309.16;;;23.92;71.86
1207;BME280;593;53.184;8.216;2022-08-23T08:27:43;101302.53;;;23.97;71.08
1207;BME280;593;53.184;8.216;2022-08-23T08:30:10;101307.47;;;24.03;70.98
1207;BME280;593;53.184;8.216;2022-08-23T08:32:36;101300.06;;;24.07;71.46
1207;BME280;593;53.184;8.216;2022-08-23T08:35:05;101308.59;;;24.14;72.09
1207;BME280;593;53.184;8.216;2022-08-23T08:37:31;101307.94;;;24.21;69.86
1207;BME280;593;53.184;8.216;2022-08-23T08:39:58;101307.94;;;24.21;69.28
1207;BME280;593;53.184;8.216;2022-08-23T08:42:50;101309.03;;;24.32;69.30
1207;BME280;593;53.184;8.216;2022-08-23T08:45:22;101303.53;;;24.36;68.02
1207;BME280;593;53.184;8.216;2022-08-23T08:48:05;101307.69;;;24.42;66.35
1207;BME280;593;53.184;8.216;2022-08-23T08:50:42;101304.09;;;24.41;66.22
1207;BME280;593;53.184;8.216;2022-08-23T08:55:45;101305.94;;;24.53;66.39
1207;BME280;593;53.184;8.216;2022-08-23T08:58:19;101308.47;;;24.58;65.10
1207;BME280;593;53.184;8.216;2022-08-23T09:00:46;101308.94;;;24.60;63.85
1207;BME280;593;53.184;8.216;2022-08-23T09:03:15;101305.94;;;24.68;64.98
1207;BME280;593;53.184;8.216;2022-08-23T09:08:45;101303.06;;;24.80;63.51
1207;BME280;593;53.184;8.216;2022-08-23T09:19:03;101293.66;;;24.85;62.70
1207;BME280;593;53.184;8.216;2022-08-23T09:21:43;101309.47;;;25.00;63.06
1207;BME280;593;53.184;8.216;2022-08-23T09:24:16;101303.63;;;25.05;63.06
1207;BME280;593;53.184;8.216;2022-08-23T09:26:43;101311.34;;;25.12;63.45
1207;BME280;593;53.184;8.216;2022-08-23T09:29:20;101305.53;;;25.20;63.71
1207;BME280;593;53.184;8.216;2022-08-23T09:31:49;101311.63;;;25.26;62.50
1207;BME280;593;53.184;8.216;2022-08-23T09:39:35;101309.94;;;25.40;60.08
1207;BME280;593;53.184;8.216;2022-08-23T09:42:01;101312.00;;;25.43;60.04
1207;BME280;593;53.184;8.216;2022-08-23T09:44:34;101305.34;;;25.48;60.47
1207;BME280;593;53.184;8.216;2022-08-23T09:47:07;101307.84;;;25.53;60.26
1207;BME280;593;53.184;8.216;2022-08-23T09:49:34;101310.28;;;25.55;60.13
1207;BME280;593;53.184;8.216;2022-08-23T09:52:33;101310.50;;;25.65;59.45
1207;BME280;593;53.184;8.216;2022-08-23T09:55:02;101298.25;;;25.70;60.08
1207;BME280;593;53.184;8.216;2022-08-23T09:57:31;101305.09;;;25.76;59.51
1207;BME280;593;53.184;8.216;2022-08-23T10:00:22;101298.81;;;25.79;59.19
1207;BME280;593;53.184;8.216;2022-08-23T10:02:48;101294.91;;;25.83;58.82
1207;BME280;593;53.184;8.216;2022-08-23T10:07:53;101293.56;;;25.96;59.87
1207;BME280;593;53.184;8.216;2022-08-23T10:10:33;101292.50;;;26.04;60.01
1207;BME280;593;53.184;8.216;2022-08-23T10:13:00;101281.50;;;26.12;59.79
1207;BME280;593;53.184;8.216;2022-08-23T10:30:04;101294.50;;;26.49;57.10
1207;BME280;593;53.184;8.216;2022-08-23T10:32:59;101295.84;;;26.59;56.33
1207;BME280;593;53.184;8.216;2022-08-23T10:35:42;101293.94;;;26.66;55.81
1207;BME280;593;53.184;8.216;2022-08-23T10:41:23;101282.88;;;26.73;53.10
1207;BME280;593;53.184;8.216;2022-08-23T10:47:00;101280.63;;;26.79;52.75
1207;BME280;593;53.184;8.216;2022-08-23T10:49:29;101280.72;;;26.86;52.65
1207;BME280;593;53.184;8.216;2022-08-23T10:51:56;101276.34;;;26.89;52.92
1207;BME280;593;53.184;8.216;2022-08-23T10:54:51;101274.88;;;26.98;53.39
1207;BME280;593;53.184;8.216;2022-08-23T10:57:33;101281.81;;;27.08;53.85
1207;BME280;593;53.184;8.216;2022-08-23T11:00:03;101273.47;;;27.11;53.12
1207;BME280;593;53.184;8.216;2022-08-23T11:03:08;101267.53;;;27.13;51.73
1207;BME280;593;53.184;8.216;2022-08-23T11:05:32;101266.84;;;27.23;52.52
1207;BME280;593;53.184;8.216;2022-08-23T11:08:01;101262.91;;;27.27;51.79
1207;BME280;593;53.184;8.216;2022-08-23T11:16:14;101257.91;;;27.40;49.41
1207;BME280;593;53.184;8.216;2022-08-23T11:18:48;101264.75;;;27.46;49.52
1207;BME280;593;53.184;8.216;2022-08-23T11:23:53;101273.56;;;27.48;49.14
1207;BME280;593;53.184;8.216;2022-08-23T11:28:52;101269.28;;;27.58;48.23
1207;BME280;593;53.184;8.216;2022-08-23T11:31:39;101262.53;;;27.62;49.95
1207;BME280;593;53.184;8.216;2022-08-23T11:34:19;101256.59;;;27.67;49.75
1207;BME280;593;53.184;8.216;2022-08-23T11:42:22;101261.97;;;27.83;49.35
1207;BME280;593;53.184;8.216;2022-08-23T11:44:48;101260.81;;;27.91;48.00
1207;BME280;593;53.184;8.216;2022-08-23T11:47:28;101257.25;;;27.94;47.53
1207;BME280;593;53.184;8.216;2022-08-23T12:01:05;101244.72;;;28.21;50.56
1207;BME280;593;53.184;8.216;2022-08-23T12:08:58;101258.06;;;28.38;47.40
1207;BME280;593;53.184;8.216;2022-08-23T12:16:54;101249.72;;;28.45;48.67
1207;BME280;593;53.184;8.216;2022-08-23T12:19:31;101244.13;;;28.49;48.89
1207;BME280;593;53.184;8.216;2022-08-23T12:22:05;101244.97;;;28.56;48.19
1207;BME280;593;53.184;8.216;2022-08-23T12:24:44;101246.59;;;28.57;49.19
1207;BME280;593;53.184;8.216;2022-08-23T12:37:36;101260.34;;;28.77;45.93
1207;BME280;593;53.184;8.216;2022-08-23T12:40:13;101254.81;;;28.87;48.21
1207;BME280;593;53.184;8.216;2022-08-23T12:42:40;101242.81;;;28.90;48.74
1207;BME280;593;53.184;8.216;2022-08-23T12:45:21;101255.28;;;29.03;49.27
1207;BME280;593;53.184;8.216;2022-08-23T12:47:59;101256.91;;;29.11;46.15
1207;BME280;593;53.184;8.216;2022-08-23T12:53:03;101246.19;;;29.20;47.45
1207;BME280;593;53.184;8.216;2022-08-23T12:55:42;101251.81;;;29.28;46.90
1207;BME280;593;53.184;8.216;2022-08-23T12:58:09;101251.03;;;29.31;48.19
1207;BME280;593;53.184;8.216;2022-08-23T13:00:53;101245.84;;;29.47;47.99
1207;BME280;593;53.184;8.216;2022-08-23T13:03:24;101249.88;;;29.49;45.72
1207;BME280;593;53.184;8.216;2022-08-23T13:05:59;101241.84;;;29.51;47.90
1207;BME280;593;53.184;8.216;2022-08-23T13:11:12;101249.53;;;29.68;47.46
1207;BME280;593;53.184;8.216;2022-08-23T13:13:41;101268.00;;;29.80;47.05
1207;BME280;593;53.184;8.216;2022-08-23T13:16:30;101251.97;;;29.88;46.29
1207;BME280;593;53.184;8.216;2022-08-23T13:19:17;101245.19;;;29.96;43.25
1207;BME280;593;53.184;8.216;2022-08-23T13:21:43;101251.59;;;30.00;44.46
1207;BME280;593;53.184;8.216;2022-08-23T13:24:39;101238.75;;;29.92;42.50
1207;BME280;593;53.184;8.216;2022-08-23T13:29:58;101245.56;;;29.83;44.51
1207;BME280;593;53.184;8.216;2022-08-23T13:32:28;101249.56;;;29.90;43.18
1207;BME280;593;53.184;8.216;2022-08-23T13:37:59;101248.38;;;29.94;43.96
1207;BME280;593;53.184;8.216;2022-08-23T13:40:29;101243.97;;;30.00;45.30
1207;BME280;593;53.184;8.216;2022-08-23T13:43:05;101231.13;;;30.03;45.61
1207;BME280;593;53.184;8.216;2022-08-23T13:45:34;101235.16;;;30.16;46.38
1207;BME280;593;53.184;8.216;2022-08-23T13:50:33;101233.94;;;30.34;46.00
1207;BME280;593;53.184;8.216;2022-08-23T13:52:59;101231.53;;;30.36;44.56
1207;BME280;593;53.184;8.216;2022-08-23T13:55:26;101227.13;;;30.46;45.16
1207;BME280;593;53.184;8.216;2022-08-23T13:57:53;101236.34;;;30.54;44.98
1207;BME280;593;53.184;8.216;2022-08-23T14:00:19;101235.53;;;30.57;44.45
1207;BME280;593;53.184;8.216;2022-08-23T14:02:44;101231.13;;;30.52;44.01
1207;BME280;593;53.184;8.216;2022-08-23T14:05:17;101232.28;;;30.62;40.14
1207;BME280;593;53.184;8.216;2022-08-23T14:07:44;101235.13;;;30.69;43.08
1207;BME280;593;53.184;8.216;2022-08-23T14:10:11;101231.88;;;30.74;43.80
1207;BME280;593;53.184;8.216;2022-08-23T14:12:36;101215.81;;;30.81;44.04
1207;BME280;593;53.184;8.216;2022-08-23T14:15:04;101228.25;;;30.91;43.60
1207;BME280;593;53.184;8.216;2022-08-23T14:17:34;101223.34;;;31.05;43.57
1207;BME280;593;53.184;8.216;2022-08-23T14:20:03;101232.97;;;31.12;42.46
1207;BME280;593;53.184;8.216;2022-08-23T14:22:30;101210.53;;;31.01;42.61
1207;BME280;593;53.184;8.216;2022-08-23T14:24:55;101223.28;;;31.20;42.57
1207;BME280;593;53.184;8.216;2022-08-23T14:27:21;101227.72;;;31.17;42.99
1207;BME280;593;53.184;8.216;2022-08-23T14:29:46;101204.84;;;31.19;41.92
1207;BME280;593;53.184;8.216;2022-08-23T14:32:11;101215.66;;;31.24;42.08
1207;BME280;593;53.184;8.216;2022-08-23T14:34:36;101230.03;;;31.36;42.83
1207;BME280;593;53.184;8.216;2022-08-23T14:37:02;101214.81;;;31.30;42.55
1207;BME280;593;53.184;8.216;2022-08-23T14:39:27;101223.19;;;31.37;41.37
1207;BME280;593;53.184;8.216;2022-08-23T14:41:53;101217.94;;;31.39;42.40
1207;BME280;593;53.184;8.216;2022-08-23T14:44:18;101224.78;;;31.45;42.44
1207;BME280;593;53.184;8.216;2022-08-23T14:46:45;101225.59;;;31.46;41.36
1207;BME280;593;53.184;8.216;2022-08-23T14:49:11;101209.50;;;31.43;41.53
1207;BME280;593;53.184;8.216;2022-08-23T14:51:40;101218.28;;;31.55;41.48
1207;BME280;593;53.184;8.216;2022-08-23T14:54:11;101214.28;;;31.56;41.36
1207;BME280;593;53.184;8.216;2022-08-23T14:56:37;101213.84;;;31.61;41.22
1207;BME280;593;53.184;8.216;2022-08-23T14:59:03;101210.59;;;31.63;41.30
1207;BME280;593;53.184;8.216;2022-08-23T15:01:28;101199.41;;;31.52;40.10
1207;BME280;593;53.184;8.216;2022-08-23T15:03:53;101203.41;;;31.58;39.68
1207;BME280;593;53.184;8.216;2022-08-23T15:06:19;101200.56;;;31.62;40.44
1207;BME280;593;53.184;8.216;2022-08-23T15:08:45;101197.31;;;31.67;40.28
1207;BME280;593;53.184;8.216;2022-08-23T15:11:11;101205.66;;;31.78;40.62
1207;BME280;593;53.184;8.216;2022-08-23T15:13:37;101201.59;;;31.82;40.22
1207;BME280;593;53.184;8.216;2022-08-23T15:16:04;101209.63;;;31.87;40.44
1207;BME280;593;53.184;8.216;2022-08-23T15:18:32;101201.22;;;31.84;39.20
1207;BME280;593;53.184;8.216;2022-08-23T15:20:57;101205.59;;;31.85;38.29
1207;BME280;593;53.184;8.216;2022-08-23T15:23:23;101198.41;;;31.84;37.50
1207;BME280;593;53.184;8.216;2022-08-23T15:25:49;101196.34;;;31.88;38.99
1207;BME280;593;53.184;8.216;2022-08-23T15:28:16;101195.53;;;31.87;39.56